Time;durP1;ratioP1;P1;durP2;ratioP2;P2;SDS_P1;SDS_P2;PMS_P1;PMS_P2;Temp;Humidity;BMP_temperature;BMP_pressure;BME280_temperature;BME280_humidity;BME280_pressure;Samples;Min_cycle;Max_cycle;Signal;HPM_P1;HPM_P2
2021/03/28 00:00:59;;;;;;;6.57;5.32;;;;;;;4.03;38.32;102273.06;4966671;28;97451;-76
2021/03/28 00:03:33;;;;;;;7.05;5.80;;;;;;;4.04;38.63;102261.69;4978056;28;97490;-76
2021/03/28 00:06:16;;;;;;;6.05;5.45;;;;;;;4.06;38.63;102269.75;4973385;28;97206;-76
2021/03/28 00:08:45;;;;;;;6.43;4.75;;;;;;;4.04;38.12;102276.63;4972320;28;96971;-76
2021/03/28 00:11:15;;;;;;;5.25;4.75;;;;;;;4.02;38.64;102281.75;4976267;28;97969;-76
2021/03/28 00:13:50;;;;;;;8.27;5.40;;;;;;;3.99;38.23;102273.63;4975238;28;100102;-76
2021/03/28 00:16:18;;;;;;;10.48;5.25;;;;;;;4.01;38.62;102276.38;4973064;28;96797;-76
2021/03/28 00:18:56;;;;;;;6.05;5.53;;;;;;;4.03;38.57;102274.78;4974882;28;96749;-75
2021/03/28 00:21:25;;;;;;;7.40;5.60;;;;;;;4.04;38.30;102287.16;5006473;27;100110;-76
2021/03/28 00:23:56;;;;;;;5.60;5.18;;;;;;;4.03;38.22;102283.59;4974355;28;97850;-76
2021/03/28 00:26:26;;;;;;;8.05;5.13;;;;;;;3.99;38.50;102278.91;4970596;28;96754;-76
2021/03/28 00:29:05;;;;;;;5.38;4.93;;;;;;;3.97;38.30;102291.03;4990402;28;96958;-76
2021/03/28 00:31:33;;;;;;;6.00;5.20;;;;;;;3.96;38.00;102281.34;5006825;28;99654;-76
2021/03/28 00:34:07;;;;;;;7.40;5.38;;;;;;;3.98;38.66;102284.06;4975848;28;96896;-76
2021/03/28 00:36:37;;;;;;;5.93;5.22;;;;;;;3.98;38.18;102270.91;4975317;28;97146;-76
2021/03/28 00:39:07;;;;;;;4.93;4.57;;;;;;;3.95;38.14;102279.47;5006390;27;96730;-76
2021/03/28 00:41:45;;;;;;;7.78;4.70;;;;;;;3.93;38.16;102274.94;4976113;28;97331;-76
2021/03/28 00:44:16;;;;;;;7.72;4.65;;;;;;;3.96;38.19;102270.78;4973612;28;100294;-76
2021/03/28 00:46:44;;;;;;;5.20;4.82;;;;;;;3.94;38.05;102275.03;5006092;27;96887;-76
2021/03/28 00:49:22;;;;;;;5.55;5.15;;;;;;;3.91;38.21;102273.91;4989410;28;97004;-76
2021/03/28 00:51:53;;;;;;;5.82;5.20;;;;;;;3.89;38.36;102279.06;4955716;28;100081;-76
2021/03/28 00:54:26;;;;;;;6.65;5.78;;;;;;;3.85;38.27;102273.47;4989389;28;99197;-76
2021/03/28 00:56:56;;;;;;;7.15;4.93;;;;;;;3.85;38.11;102279.66;4956055;28;96914;-76
2021/03/28 00:59:32;;;;;;;8.23;4.75;;;;;;;3.88;38.07;102278.94;4974380;28;96900;-77
2021/03/28 01:02:28;;;;;;;9.60;5.05;;;;;;;3.83;37.76;102276.00;4974184;28;98886;-76
2021/03/28 01:05:22;;;;;;;8.95;5.05;;;;;;;3.85;38.21;102269.13;5006790;28;96852;-76
2021/03/28 01:07:57;;;;;;;6.15;4.82;;;;;;;3.87;37.89;102272.78;4977362;28;96682;-76
2021/03/28 01:10:55;;;;;;;6.03;5.40;;;;;;;3.87;38.34;102272.78;4973591;28;97366;-76
2021/03/28 01:14:03;;;;;;;4.97;4.63;;;;;;;3.84;38.26;102267.28;4975243;28;100021;-76
2021/03/28 01:16:58;;;;;;;5.78;4.70;;;;;;;3.85;38.54;102273.47;4975192;28;100127;-76
2021/03/28 01:19:55;;;;;;;8.55;4.85;;;;;;;3.88;38.33;102276.31;4972764;28;96930;-76
2021/03/28 01:22:32;;;;;;;5.63;5.10;;;;;;;3.85;38.16;102276.09;4951867;28;98353;-75
2021/03/28 01:25:05;;;;;;;8.23;5.50;;;;;;;3.81;37.89;102266.13;4975481;28;97204;-76
2021/03/28 01:27:34;;;;;;;8.13;5.10;;;;;;;3.82;38.18;102271.53;4977844;28;96827;-76
2021/03/28 01:30:09;;;;;;;6.68;5.53;;;;;;;3.82;37.93;102268.91;4977894;28;97246;-76
2021/03/28 01:32:39;;;;;;;8.20;5.40;;;;;;;3.81;38.22;102276.66;4975185;28;96828;-76
2021/03/28 01:35:21;;;;;;;8.27;4.95;;;;;;;3.83;38.28;102273.34;4973856;28;99722;-76
2021/03/28 01:37:51;;;;;;;9.85;4.20;;;;;;;3.87;38.10;102271.84;4974826;28;98321;-76
2021/03/28 01:40:21;;;;;;;6.63;5.03;;;;;;;3.83;37.80;102262.81;4976899;28;96749;-76
2021/03/28 01:43:00;;;;;;;6.35;4.80;;;;;;;3.79;37.91;102267.75;4978721;28;96584;-76
2021/03/28 01:45:34;;;;;;;6.63;4.97;;;;;;;3.75;37.87;102256.06;4962946;28;99605;-76
2021/03/28 01:48:12;;;;;;;7.15;5.03;;;;;;;3.74;38.44;102253.34;4974555;28;97751;-76
2021/03/28 01:50:46;;;;;;;6.28;5.47;;;;;;;3.77;38.05;102246.56;4974677;28;96854;-76
2021/03/28 01:53:24;;;;;;;6.35;5.10;;;;;;;3.80;38.07;102253.78;5004122;28;97481;-75
2021/03/28 01:55:58;;;;;;;9.02;6.13;;;;;;;3.76;38.07;102250.03;4977776;28;97997;-76
2021/03/28 01:58:36;;;;;;;5.80;5.18;;;;;;;3.77;38.21;102251.84;4976583;28;97715;-76
2021/03/28 02:01:19;;;;;;;6.22;5.63;;;;;;;3.76;38.19;102250.03;4977742;28;97330;-76
2021/03/28 02:03:54;;;;;;;5.80;5.18;;;;;;;3.72;38.16;102253.25;4973707;28;96823;-77
2021/03/28 02:06:49;;;;;;;6.95;4.93;;;;;;;3.69;37.91;102262.63;5008586;27;100042;-77
2021/03/28 02:09:28;;;;;;;5.60;5.18;;;;;;;3.68;38.36;102264.34;5013102;27;100837;-75
2021/03/28 02:12:04;;;;;;;7.05;5.70;;;;;;;3.65;37.74;102258.88;4975137;28;97235;-75
2021/03/28 02:14:54;;;;;;;6.35;5.65;;;;;;;3.68;37.79;102266.06;4978360;28;97032;-77
2021/03/28 02:17:27;;;;;;;6.90;6.13;;;;;;;3.69;37.87;102275.78;4978901;28;99878;-77
2021/03/28 02:20:29;;;;;;;10.27;6.40;;;;;;;3.67;37.76;102282.66;4971805;28;98798;-76
2021/03/28 02:23:00;;;;;;;5.38;4.97;;;;;;;3.64;37.93;102266.63;4974328;28;96879;-77
2021/03/28 02:25:46;;;;;;;5.72;5.13;;;;;;;3.65;38.16;102274.66;4975089;28;97208;-77
2021/03/28 02:28:19;;;;;;;7.30;6.00;;;;;;;3.66;38.13;102273.84;4993554;28;98595;-76
2021/03/28 02:31:02;;;;;;;6.72;6.13;;;;;;;3.66;38.16;102271.22;5006980;28;98257;-77
2021/03/28 02:33:34;;;;;;;7.07;6.38;;;;;;;3.64;38.25;102279.78;4977788;28;96715;-77
2021/03/28 02:36:17;;;;;;;6.88;5.43;;;;;;;3.62;37.69;102277.06;4975654;28;97264;-76
2021/03/28 02:39:06;;;;;;;7.47;5.85;;;;;;;3.62;38.29;102278.75;4975706;28;99715;-77
2021/03/28 02:41:44;;;;;;;8.95;6.00;;;;;;;3.62;38.23;102284.03;4976090;28;98014;-77
2021/03/28 02:44:19;;;;;;;9.82;5.63;;;;;;;3.65;38.21;102277.28;5007801;28;96730;-76
2021/03/28 02:46:52;;;;;;;8.65;6.75;;;;;;;3.63;38.26;102292.03;4976680;28;96977;-76
2021/03/28 02:49:40;;;;;;;6.03;5.43;;;;;;;3.63;38.33;102292.03;4977607;28;99866;-77
2021/03/28 02:52:25;;;;;;;6.45;5.85;;;;;;;3.64;38.04;102288.56;4992210;28;98978;-77
2021/03/28 02:55:15;;;;;;;8.10;6.10;;;;;;;3.59;38.21;102287.34;4957360;28;97227;-76
2021/03/28 02:57:48;;;;;;;8.15;5.80;;;;;;;3.58;37.82;102282.88;4976315;28;96906;-76
2021/03/28 03:00:26;;;;;;;7.32;5.80;;;;;;;3.61;37.61;102282.19;4975050;28;99309;-76
2021/03/28 03:03:39;;;;;;;7.88;6.53;;;;;;;3.62;37.86;102281.41;4954275;28;99106;-77
2021/03/28 03:06:15;;;;;;;7.15;6.32;;;;;;;3.62;38.00;102269.16;4871314;28;97065;-77
2021/03/28 03:08:44;;;;;;;8.88;5.78;;;;;;;3.63;37.67;102286.75;4872723;28;97499;-77
2021/03/28 03:11:30;;;;;;;8.80;5.60;;;;;;;3.65;37.96;102287.81;4945868;28;97685;-76
2021/03/28 03:14:35;;;;;;;9.23;6.38;;;;;;;3.67;37.78;102275.69;4976184;28;99879;-75
2021/03/28 03:17:55;;;;;;;7.10;6.07;;;;;;;3.66;38.21;102279.09;4978722;28;96840;-77
2021/03/28 03:20:31;;;;;;;7.20;5.65;;;;;;;3.67;37.31;102273.06;5008244;28;97091;-76
2021/03/28 03:23:39;;;;;;;6.90;6.22;;;;;;;3.71;37.57;102276.81;5011539;28;99598;-77
2021/03/28 03:26:12;;;;;;;10.07;6.55;;;;;;;3.73;37.35;102276.13;4957523;28;100136;-77
2021/03/28 03:29:06;;;;;;;8.57;5.93;;;;;;;3.78;37.35;102271.19;4974589;28;96917;-76
2021/03/28 03:31:54;;;;;;;8.65;5.68;;;;;;;3.79;37.61;102276.56;4975500;28;96787;-77
2021/03/28 03:34:35;;;;;;;7.70;6.07;;;;;;;3.76;37.98;102279.00;4977286;28;100595;-77
2021/03/28 03:37:24;;;;;;;6.22;5.70;;;;;;;3.75;37.57;102277.13;5004629;28;99735;-77
2021/03/28 03:40:03;;;;;;;8.13;5.63;;;;;;;3.78;37.53;102279.09;4990221;28;96906;-76
2021/03/28 03:42:48;;;;;;;6.50;5.95;;;;;;;3.74;37.54;102288.50;4992873;28;96817;-76
2021/03/28 03:45:44;;;;;;;6.72;6.07;;;;;;;3.73;37.80;102281.38;4975639;28;96940;-77
2021/03/28 03:48:21;;;;;;;8.77;5.85;;;;;;;3.76;37.59;102280.69;4972819;28;97010;-77
2021/03/28 03:50:58;;;;;;;8.38;5.57;;;;;;;3.74;37.80;102274.41;4972074;28;96819;-76
2021/03/28 03:53:37;;;;;;;7.38;5.88;;;;;;;3.74;37.37;102275.31;4958481;28;96926;-77
2021/03/28 03:56:16;;;;;;;7.65;5.80;;;;;;;3.79;37.57;102279.19;4971135;28;98882;-76
2021/03/28 03:58:53;;;;;;;9.90;6.07;;;;;;;3.79;37.38;102276.56;4990143;28;97244;-76
2021/03/28 04:01:23;;;;;;;7.63;5.50;;;;;;;3.80;37.67;102280.13;4969967;28;96986;-76
2021/03/28 04:04:01;;;;;;;6.60;5.70;;;;;;;3.81;37.44;102277.59;4968604;28;96795;-76
2021/03/28 04:06:52;;;;;;;12.07;5.90;;;;;;;3.85;37.29;102277.03;4974000;28;98893;-76
2021/03/28 04:09:26;;;;;;;6.30;5.75;;;;;;;3.89;37.00;102276.44;4918709;28;99995;-76
2021/03/28 04:12:25;;;;;;;6.60;5.60;;;;;;;3.84;37.13;102267.28;4972570;28;96988;-76
2021/03/28 04:15:16;;;;;;;9.05;5.85;;;;;;;3.91;37.28;102269.56;4968341;28;96920;-76
2021/03/28 04:17:56;;;;;;;7.53;5.43;;;;;;;3.94;37.04;102272.41;5007743;28;98543;-76
2021/03/28 04:20:30;;;;;;;9.98;5.82;;;;;;;3.97;37.14;102262.06;4973259;28;98451;-76
2021/03/28 04:23:24;;;;;;;9.43;6.13;;;;;;;4.00;37.38;102264.94;4972760;28;96874;-76
2021/03/28 04:26:00;;;;;;;8.75;6.13;;;;;;;4.02;37.28;102265.06;4946593;28;96824;-76
2021/03/28 04:28:40;;;;;;;8.88;5.78;;;;;;;4.03;36.92;102275.69;4970689;28;97108;-76
2021/03/28 04:31:29;;;;;;;8.40;5.88;;;;;;;4.03;37.33;102274.78;5008604;28;98475;-76
2021/03/28 04:34:01;;;;;;;9.43;5.93;;;;;;;4.00;36.76;102275.50;5008445;28;96998;-76
2021/03/28 04:36:34;;;;;;;7.70;5.10;;;;;;;3.99;36.90;102271.00;4973308;28;96871;-76
2021/03/28 04:39:33;;;;;;;6.38;5.68;;;;;;;4.00;36.95;102275.50;5003296;28;99622;-76
2021/03/28 04:42:33;;;;;;;5.68;5.25;;;;;;;4.01;36.96;102279.94;4951669;28;98418;-76
2021/03/28 04:45:32;;;;;;;8.27;5.57;;;;;;;4.03;37.42;102280.03;4974162;28;96809;-76
2021/03/28 04:48:22;;;;;;;6.00;5.43;;;;;;;4.05;37.15;102271.44;4973552;28;96921;-75
2021/03/28 04:51:12;;;;;;;10.98;6.05;;;;;;;4.06;37.05;102270.63;4982776;28;98956;-78
2021/03/28 04:54:01;;;;;;;6.32;5.18;;;;;;;4.06;37.26;102269.75;4990688;28;96995;-75
2021/03/28 04:57:01;;;;;;;9.10;5.53;;;;;;;4.06;36.92;102265.34;4986062;28;96758;-76
2021/03/28 04:59:43;;;;;;;7.10;5.28;;;;;;;4.02;36.97;102268.56;4976774;28;96830;-76
2021/03/28 05:02:22;;;;;;;8.63;6.13;;;;;;;4.08;36.91;102273.38;4973348;28;99731;-78
2021/03/28 05:05:03;;;;;;;8.35;5.82;;;;;;;4.08;36.82;102284.81;4974179;28;96890;-76
2021/03/28 05:08:11;;;;;;;8.02;5.45;;;;;;;4.10;36.81;102275.31;5008467;28;96753;-75
2021/03/28 05:11:06;;;;;;;6.72;5.47;;;;;;;4.16;36.77;102278.41;5005223;28;97337;-76
2021/03/28 05:14:01;;;;;;;6.85;5.80;;;;;;;4.21;37.04;102277.00;4972702;28;98585;-76
2021/03/28 05:17:01;;;;;;;7.38;5.55;;;;;;;4.27;36.78;102278.22;4977870;28;97663;-75
2021/03/28 05:19:55;;;;;;;11.02;6.38;;;;;;;4.30;36.58;102271.44;5006436;28;96847;-77
2021/03/28 05:23:00;;;;;;;10.15;6.07;;;;;;;4.31;36.70;102282.91;4938186;28;97750;-75
2021/03/28 05:25:35;;;;;;;6.05;5.25;;;;;;;4.30;36.83;102289.00;4957722;28;98263;-79
2021/03/28 05:28:33;;;;;;;6.72;5.60;;;;;;;4.29;36.65;102277.53;5007291;28;98082;-76
2021/03/28 05:31:41;;;;;;;8.23;5.70;;;;;;;4.30;36.86;102281.97;5006513;28;96764;-78
2021/03/28 05:34:38;;;;;;;5.97;5.28;;;;;;;4.39;36.50;102281.72;5007956;28;97083;-75
2021/03/28 05:37:20;;;;;;;5.97;5.28;;;;;;;4.45;36.70;102287.41;4890864;28;100929;-76
2021/03/28 05:40:12;;;;;;;6.35;5.82;;;;;;;4.47;36.28;102278.81;5007645;28;96823;-76
2021/03/28 05:42:56;;;;;;;7.80;5.35;;;;;;;4.48;36.34;102277.97;4957844;28;97143;-75
2021/03/28 05:45:42;;;;;;;5.85;4.95;;;;;;;4.50;36.35;102280.75;4984242;28;96716;-77
2021/03/28 05:48:54;;;;;;;6.30;5.32;;;;;;;4.50;36.51;102279.00;4972143;28;97266;-76
2021/03/28 05:51:48;;;;;;;6.97;4.90;;;;;;;4.49;36.15;102279.84;4976014;28;96841;-77
2021/03/28 05:54:59;;;;;;;6.38;4.63;;;;;;;4.45;36.36;102280.41;4941202;28;97149;-76
2021/03/28 05:58:04;;;;;;;9.68;5.00;;;;;;;4.49;36.51;102286.81;4973285;28;97493;-77
2021/03/28 06:00:43;;;;;;;8.65;5.10;;;;;;;4.56;36.34;102286.44;4971680;28;97385;-75
2021/03/28 06:03:45;;;;;;;6.30;5.32;;;;;;;4.56;36.36;102286.44;4975464;28;96863;-78
2021/03/28 06:06:40;;;;;;;5.18;4.82;;;;;;;4.58;36.18;102300.63;4949996;28;96812;-75
2021/03/28 06:09:41;;;;;;;6.22;5.22;;;;;;;4.56;36.34;102287.34;5011246;28;96913;-75
2021/03/28 06:12:43;;;;;;;8.55;5.10;;;;;;;4.56;36.15;102287.34;4981766;28;97582;-77
2021/03/28 06:15:29;;;;;;;6.97;5.15;;;;;;;4.55;36.13;102289.88;4916630;28;98139;-76
2021/03/28 06:18:31;;;;;;;6.70;4.65;;;;;;;4.64;36.10;102282.63;5008589;28;96816;-75
2021/03/28 06:21:18;;;;;;;7.53;5.47;;;;;;;4.70;36.26;102280.41;5012325;28;96914;-78
2021/03/28 06:24:16;;;;;;;9.88;5.40;;;;;;;4.84;36.16;102282.25;4990330;28;98433;-77
2021/03/28 06:27:19;;;;;;;5.30;4.70;;;;;;;4.93;36.14;102277.59;4992113;28;96849;-76
2021/03/28 06:30:31;;;;;;;5.97;5.30;;;;;;;4.98;35.90;102278.81;5003750;27;96943;-77
2021/03/28 06:33:31;;;;;;;7.90;5.20;;;;;;;5.08;35.62;102281.31;4973593;28;97449;-76
2021/03/28 06:36:28;;;;;;;6.15;4.75;;;;;;;5.16;35.48;102274.78;4953640;28;96958;-77
2021/03/28 06:39:28;;;;;;;18.15;8.75;;;;;;;5.28;35.30;102277.34;4979318;28;96785;-77
2021/03/28 06:42:11;;;;;;;10.15;6.00;;;;;;;5.28;35.34;102270.34;4976609;28;96925;-77
2021/03/28 06:44:55;;;;;;;6.63;4.95;;;;;;;5.32;35.48;102277.63;4978981;28;96871;-78
2021/03/28 06:47:59;;;;;;;11.25;5.60;;;;;;;5.33;35.44;102274.19;5007954;28;98129;-77
2021/03/28 06:50:47;;;;;;;6.22;4.78;;;;;;;5.36;35.42;102270.88;4973752;28;98718;-77
2021/03/28 06:54:17;;;;;;;6.28;4.97;;;;;;;5.43;35.33;102271.34;4977776;28;97167;-77
2021/03/28 06:57:11;;;;;;;8.63;5.60;;;;;;;5.46;35.11;102268.91;4966380;28;97023;-76
2021/03/28 07:00:05;;;;;;;6.28;5.03;;;;;;;5.51;35.12;102269.19;4972732;28;97814;-76
2021/03/28 07:03:03;;;;;;;5.15;4.68;;;;;;;5.53;35.29;102267.56;4993954;28;98792;-77
2021/03/28 07:05:38;;;;;;;5.28;4.78;;;;;;;5.51;35.28;102267.47;4970885;28;96769;-77
2021/03/28 07:08:14;;;;;;;8.35;4.60;;;;;;;5.59;35.23;102271.53;4971691;28;97025;-78
2021/03/28 07:10:51;;;;;;;7.53;4.72;;;;;;;5.64;35.40;102270.09;4958924;28;97007;-76
2021/03/28 07:13:40;;;;;;;8.50;5.03;;;;;;;5.72;35.07;102270.59;4990682;28;98989;-77
2021/03/28 07:16:20;;;;;;;9.70;5.68;;;;;;;5.74;34.99;102275.16;5010211;27;97192;-76
2021/03/28 07:19:12;;;;;;;6.10;4.75;;;;;;;5.79;35.16;102273.75;4977894;28;97213;-77
2021/03/28 07:22:08;;;;;;;5.93;4.88;;;;;;;5.82;35.11;102271.28;4955124;28;97850;-77
2021/03/28 07:24:58;;;;;;;5.93;4.60;;;;;;;5.91;35.04;102282.44;4955057;28;98450;-76
2021/03/28 07:28:04;;;;;;;8.20;5.57;;;;;;;5.98;34.76;102284.66;4958783;28;97113;-76
2021/03/28 07:30:50;;;;;;;7.13;4.93;;;;;;;6.09;34.60;102285.31;4934922;28;96920;-76
2021/03/28 07:33:51;;;;;;;9.05;5.03;;;;;;;6.08;34.94;102287.06;4968686;28;100609;-78
2021/03/28 07:36:36;;;;;;;6.78;4.95;;;;;;;6.14;35.04;102291.81;4910101;28;99318;-76
2021/03/28 07:39:43;;;;;;;12.07;7.38;;;;;;;6.21;34.61;102296.69;5005243;27;97800;-76
2021/03/28 07:42:48;;;;;;;6.57;5.38;;;;;;;6.29;34.74;102290.16;4972884;28;96915;-77
2021/03/28 07:45:37;;;;;;;4.82;4.53;;;;;;;6.30;34.90;102292.00;4963084;28;99774;-74
2021/03/28 07:48:43;;;;;;;5.45;4.70;;;;;;;6.41;34.74;102297.94;4969666;28;98635;-74
2021/03/28 07:51:48;;;;;;;6.35;4.85;;;;;;;6.50;34.63;102290.59;4969171;28;96834;-76
2021/03/28 07:54:41;;;;;;;5.97;4.50;;;;;;;6.57;34.52;102288.41;4988078;28;96932;-76
2021/03/28 07:57:21;;;;;;;6.82;4.30;;;;;;;6.64;34.61;102290.59;4970334;28;99810;-75
2021/03/28 08:00:25;;;;;;;7.05;4.63;;;;;;;6.81;34.35;102288.97;4981832;28;98757;-75
2021/03/28 08:03:09;;;;;;;5.85;4.55;;;;;;;6.85;34.78;102296.28;4981579;28;96914;-75
2021/03/28 08:05:51;;;;;;;8.50;5.07;;;;;;;6.87;34.41;102307.88;4973933;28;96952;-77
2021/03/28 08:08:32;;;;;;;5.32;4.57;;;;;;;6.88;34.47;102301.75;5007351;27;96975;-77
2021/03/28 08:11:14;;;;;;;9.15;5.22;;;;;;;6.95;34.36;102301.28;4975840;28;98782;-78
2021/03/28 08:14:05;;;;;;;11.27;5.70;;;;;;;6.98;34.17;102301.50;4973695;28;96884;-78
2021/03/28 08:16:40;;;;;;;7.53;5.18;;;;;;;7.06;34.31;102300.19;4973936;28;96883;-77
2021/03/28 08:19:25;;;;;;;7.35;5.57;;;;;;;7.12;34.22;102300.56;4972978;28;97707;-77
2021/03/28 08:21:56;;;;;;;7.10;5.13;;;;;;;7.11;34.55;102304.94;5005841;27;97268;-77
2021/03/28 08:25:25;;;;;;;11.18;5.88;;;;;;;7.13;34.42;102290.06;4975055;28;96878;-78
2021/03/28 08:28:15;;;;;;;7.25;5.20;;;;;;;7.22;34.27;102289.69;4922489;28;97344;-77
2021/03/28 08:30:48;;;;;;;7.15;5.35;;;;;;;7.25;34.31;102292.53;4970004;28;100500;-75
2021/03/28 08:34:08;;;;;;;9.50;5.97;;;;;;;7.32;34.81;102289.41;4965844;28;99626;-73
2021/03/28 08:36:49;;;;;;;10.57;6.03;;;;;;;7.41;34.26;102295.28;4972098;28;97545;-75
2021/03/28 08:39:39;;;;;;;12.00;5.53;;;;;;;7.49;34.59;102286.03;4967828;28;97739;-74
2021/03/28 08:42:39;;;;;;;8.75;5.18;;;;;;;7.60;34.52;102290.19;4987292;28;99396;-75
2021/03/28 08:45:30;;;;;;;6.72;5.75;;;;;;;7.72;33.87;102285.63;4957712;28;100557;-75
2021/03/28 08:48:46;;;;;;;8.13;5.53;;;;;;;7.78;34.37;102285.06;4969794;28;97793;-73
2021/03/28 08:51:49;;;;;;;6.70;5.43;;;;;;;7.90;33.74;102284.00;4897894;28;97413;-74
2021/03/28 08:54:18;;;;;;;8.05;5.30;;;;;;;7.93;34.02;102292.09;4970938;28;96873;-73
2021/03/28 08:57:12;;;;;;;9.32;5.22;;;;;;;8.05;33.75;102295.44;5002773;28;100574;-75
2021/03/28 08:59:52;;;;;;;15.80;6.43;;;;;;;8.05;33.62;102294.53;4972973;28;96952;-76
2021/03/28 09:02:28;;;;;;;7.88;5.95;;;;;;;8.09;33.84;102294.75;4970571;28;96859;-75
2021/03/28 09:05:06;;;;;;;6.22;5.07;;;;;;;8.14;33.92;102292.38;4970670;28;99667;-75
2021/03/28 09:07:42;;;;;;;5.78;5.10;;;;;;;8.17;33.38;102288.16;4976206;28;96847;-76
2021/03/28 09:10:53;;;;;;;15.23;5.70;;;;;;;8.27;33.36;102289.59;4970569;28;96985;-76
2021/03/28 09:13:37;;;;;;;7.72;4.53;;;;;;;8.30;33.29;102279.13;4920921;28;97031;-76
2021/03/28 09:16:13;;;;;;;6.70;4.40;;;;;;;8.35;33.25;102284.69;4974157;28;99234;-78
2021/03/28 09:18:47;;;;;;;5.95;4.47;;;;;;;8.37;33.51;102285.69;5002373;28;97645;-77
2021/03/28 09:21:35;;;;;;;6.43;4.40;;;;;;;8.45;33.53;102276.38;4973585;28;97261;-76
2021/03/28 09:24:08;;;;;;;7.15;4.65;;;;;;;8.48;33.30;102264.22;5003085;28;96809;-76
2021/03/28 09:26:46;;;;;;;7.22;4.57;;;;;;;8.50;33.21;102269.59;4953277;28;99512;-76
2021/03/28 09:29:36;;;;;;;7.22;4.40;;;;;;;8.56;33.16;102269.94;4975291;28;96853;-75
2021/03/28 09:32:14;;;;;;;5.72;4.40;;;;;;;8.61;33.37;102265.78;5004994;27;96814;-76
2021/03/28 09:34:53;;;;;;;8.88;4.82;;;;;;;8.65;33.46;102267.78;4975277;28;97378;-75
2021/03/28 09:37:25;;;;;;;5.13;4.38;;;;;;;8.63;33.22;102275.66;4988163;28;98534;-76
2021/03/28 09:39:59;;;;;;;9.73;4.88;;;;;;;8.67;33.33;102276.72;4968699;28;96752;-76
2021/03/28 09:43:01;;;;;;;10.07;4.70;;;;;;;8.67;32.87;102275.00;4973633;28;97659;-77
2021/03/28 09:46:12;;;;;;;5.90;4.75;;;;;;;8.81;33.05;102266.00;4971356;28;97195;-76
2021/03/28 09:49:18;;;;;;;5.78;4.18;;;;;;;8.91;32.93;102268.31;5006576;27;98450;-76
2021/03/28 09:52:23;;;;;;;6.65;4.35;;;;;;;9.00;32.91;102268.78;4942208;28;98595;-78
2021/03/28 09:55:19;;;;;;;6.15;3.75;;;;;;;9.13;32.87;102273.84;5004886;28;96854;-77
2021/03/28 09:58:40;;;;;;;7.45;4.18;;;;;;;9.21;32.70;102279.56;4985865;28;97272;-76
2021/03/28 10:01:47;;;;;;;7.47;3.67;;;;;;;9.29;32.58;102262.28;4937910;28;99774;-76
2021/03/28 10:04:19;;;;;;;9.35;5.63;;;;;;;9.41;32.75;102270.84;4927276;28;98998;-78
2021/03/28 10:06:55;;;;;;;6.55;3.80;;;;;;;9.50;32.58;102262.47;4953094;28;97471;-76
2021/03/28 10:09:58;;;;;;;9.07;4.57;;;;;;;9.61;32.29;102256.81;4971920;28;97408;-77
2021/03/28 10:12:30;;;;;;;5.57;4.05;;;;;;;9.81;32.31;102260.44;5005473;28;96909;-76
2021/03/28 10:15:03;;;;;;;4.25;3.63;;;;;;;9.79;32.02;102251.47;4971240;28;99470;-76
2021/03/28 10:17:44;;;;;;;5.55;4.03;;;;;;;9.83;32.35;102248.09;4976387;28;97292;-75
2021/03/28 10:20:56;;;;;;;8.27;4.28;;;;;;;9.86;32.06;102259.78;4965117;28;96989;-77
2021/03/28 10:23:45;;;;;;;6.60;3.97;;;;;;;9.94;32.10;102255.75;4996730;28;99242;-76
2021/03/28 10:26:32;;;;;;;5.68;4.13;;;;;;;9.84;32.22;102258.84;4988094;28;98395;-76
2021/03/28 10:29:16;;;;;;;8.23;4.28;;;;;;;9.84;32.38;102261.50;4972093;28;96865;-77
2021/03/28 10:31:54;;;;;;;8.50;4.18;;;;;;;9.86;32.37;102257.13;4975567;28;97099;-76
2021/03/28 10:34:48;;;;;;;7.30;3.95;;;;;;;9.85;32.48;102258.00;4974500;28;97218;-76
2021/03/28 10:37:22;;;;;;;8.77;4.00;;;;;;;9.90;32.34;102253.78;4976296;28;96904;-75
2021/03/28 10:40:19;;;;;;;5.55;4.22;;;;;;;9.93;32.61;102266.34;4957290;28;96951;-76
2021/03/28 10:42:51;;;;;;;6.38;3.72;;;;;;;9.91;32.69;102252.97;4920294;28;97063;-76
2021/03/28 10:45:27;;;;;;;8.80;3.95;;;;;;;9.98;32.68;102256.81;4974185;28;97012;-76
2021/03/28 10:48:24;;;;;;;5.72;3.90;;;;;;;10.02;32.53;102249.06;4973177;28;99255;-76
2021/03/28 10:51:16;;;;;;;7.35;3.78;;;;;;;10.13;32.63;102242.50;4990355;28;97387;-77
2021/03/28 10:53:55;;;;;;;5.15;4.35;;;;;;;10.23;32.60;102243.81;4962461;28;97329;-76
2021/03/28 10:57:28;;;;;;;6.30;3.67;;;;;;;10.39;32.46;102240.09;4991768;28;100371;-75
2021/03/28 11:00:24;;;;;;;9.10;3.40;;;;;;;10.50;32.21;102230.88;4949920;28;99144;-75
2021/03/28 11:03:21;;;;;;;10.93;3.85;;;;;;;10.56;32.35;102231.13;5006781;28;96929;-75
2021/03/28 11:06:12;;;;;;;7.38;3.45;;;;;;;10.71;32.03;102238.06;4991037;28;97327;-76
2021/03/28 11:08:44;;;;;;;6.07;3.17;;;;;;;10.81;32.07;102226.94;4976076;28;99090;-75
2021/03/28 11:11:48;;;;;;;5.80;3.90;;;;;;;10.87;31.12;102221.88;4989898;28;98435;-75
2021/03/28 11:14:23;;;;;;;7.38;3.28;;;;;;;10.95;31.99;102222.22;5005471;27;96731;-75
2021/03/28 11:17:14;;;;;;;6.03;4.05;;;;;;;10.95;31.53;102206.22;4986292;28;96833;-75
2021/03/28 11:19:58;;;;;;;5.97;3.00;;;;;;;10.91;31.86;102223.84;4964276;28;96927;-75
2021/03/28 11:22:36;;;;;;;4.93;3.20;;;;;;;10.92;31.91;102217.66;5007363;28;99899;-76
2021/03/28 11:25:18;;;;;;;4.68;2.70;;;;;;;10.87;31.67;102219.22;4956728;28;97350;-76
2021/03/28 11:28:16;;;;;;;4.40;3.30;;;;;;;10.92;31.94;102208.78;4984762;28;98055;-74
2021/03/28 11:30:45;;;;;;;5.20;3.03;;;;;;;11.04;32.01;102214.63;4971952;28;98575;-75
2021/03/28 11:33:19;;;;;;;3.67;2.60;;;;;;;11.11;31.90;102217.59;4968375;28;98450;-75
2021/03/28 11:36:03;;;;;;;3.83;3.15;;;;;;;11.20;31.87;102209.97;4968831;28;97649;-75
2021/03/28 11:38:41;;;;;;;4.15;3.80;;;;;;;11.34;31.45;102209.69;4972831;28;97072;-75
2021/03/28 11:41:33;;;;;;;2.92;2.70;;;;;;;11.43;30.95;102207.38;4972637;28;98896;-75
2021/03/28 11:44:13;;;;;;;8.80;3.08;;;;;;;11.41;30.34;102203.75;4969885;28;97094;-75
2021/03/28 11:47:17;;;;;;;4.28;2.80;;;;;;;11.46;30.73;102205.75;5006120;28;96851;-76
2021/03/28 11:49:55;;;;;;;4.10;3.05;;;;;;;11.50;31.32;102194.38;4974003;28;96799;-75
2021/03/28 11:52:28;;;;;;;7.93;2.78;;;;;;;11.54;31.43;102198.97;4973439;28;96929;-75
2021/03/28 11:55:21;;;;;;;5.70;2.85;;;;;;;11.58;31.05;102195.56;5007530;28;99235;-75
2021/03/28 11:58:06;;;;;;;5.35;2.92;;;;;;;11.58;30.62;102195.56;4965549;28;97462;-74
2021/03/28 12:00:42;;;;;;;2.60;2.40;;;;;;;11.73;31.20;102192.59;4954910;28;96670;-75
2021/03/28 12:03:25;;;;;;;5.40;2.92;;;;;;;11.88;31.04;102190.50;4971550;28;96817;-75
2021/03/28 12:05:55;;;;;;;3.13;2.60;;;;;;;11.95;31.06;102185.47;4967923;28;96688;-76
2021/03/28 12:08:25;;;;;;;3.78;3.05;;;;;;;12.02;31.02;102186.59;4953206;28;96892;-75
2021/03/28 12:11:45;;;;;;;4.13;2.78;;;;;;;12.11;29.71;102179.84;4976066;28;96920;-74
2021/03/28 12:14:19;;;;;;;3.53;2.88;;;;;;;12.16;30.47;102186.25;4863285;28;100227;-74
2021/03/28 12:17:34;;;;;;;5.00;2.92;;;;;;;12.22;30.40;102184.72;4890905;28;96836;-75
2021/03/28 12:20:11;;;;;;;4.88;3.10;;;;;;;12.17;30.74;102176.53;4933341;28;96884;-75
2021/03/28 12:22:55;;;;;;;2.75;2.53;;;;;;;12.20;30.39;102176.63;4968525;28;96878;-74
2021/03/28 12:25:27;;;;;;;3.65;3.20;;;;;;;12.22;30.85;102171.38;5003354;28;99130;-74
2021/03/28 12:28:25;;;;;;;4.50;3.42;;;;;;;12.28;30.31;102161.81;4988490;28;98418;-77
2021/03/28 12:30:53;;;;;;;4.20;2.65;;;;;;;12.30;30.67;102164.53;4961841;28;97347;-75
2021/03/28 12:33:22;;;;;;;4.85;2.50;;;;;;;12.42;30.65;102154.31;4953646;28;96879;-75
2021/03/28 12:36:01;;;;;;;8.00;3.20;;;;;;;12.51;29.68;102159.97;4988825;28;100209;-76
2021/03/28 12:38:48;;;;;;;4.50;3.05;;;;;;;12.62;29.50;102156.81;4989328;28;99847;-75
2021/03/28 12:41:31;;;;;;;2.85;2.63;;;;;;;12.73;29.80;102162.53;5006280;28;96960;-75
2021/03/28 12:44:26;;;;;;;3.92;2.65;;;;;;;12.88;29.34;102155.00;4998558;28;96854;-75
2021/03/28 12:47:14;;;;;;;6.20;3.05;;;;;;;13.05;29.45;102146.75;4972839;28;97099;-75
2021/03/28 12:49:45;;;;;;;4.03;3.00;;;;;;;13.15;29.39;102153.28;4983356;28;97101;-75
2021/03/28 12:52:24;;;;;;;3.55;3.22;;;;;;;13.27;27.64;102153.69;4989898;28;98018;-75
2021/03/28 12:55:19;;;;;;;5.60;3.28;;;;;;;13.63;28.27;102157.50;4972413;28;97036;-75
2021/03/28 12:58:13;;;;;;;4.45;3.58;;;;;;;13.87;27.36;102138.63;4952273;28;100296;-75
2021/03/28 13:00:49;;;;;;;5.10;3.20;;;;;;;14.07;28.35;102135.69;4974915;28;97556;-75